Terminal Aerodrome Forecast
Issued by NWS

Home | Current Version | Previous Version | Text Only | Print | Product List | Glossary On
Versions: 1 2 3 4 5 6 7 8 9 10 11 12 13 14 15 16 17 18 19 20 21
116
FTUS41 KBGM 261725
TAFELM
TAF
KELM 261725Z 2618/2718 31008KT P6SM SCT040
     FM270000 VRB03KT P6SM SKC
     FM270900 00000KT 5SM BR SKC
      TEMPO 2710/2713 1/2SM FG BKN002
     FM271400 26005KT P6SM FEW030=

USA.gov is the U.S. government's official web portal to all federal, state and local government web resources and services.